createdAt,value
2023-02-11T00:01:10.114Z,6.80
2023-02-11T00:03:38.716Z,7.07
2023-02-11T00:06:09.333Z,7.05
2023-02-11T00:08:36.433Z,8.18
2023-02-11T00:11:03.385Z,9.23
2023-02-11T00:13:30.525Z,6.07
2023-02-11T00:15:57.412Z,7.40
2023-02-11T00:18:24.408Z,7.05
2023-02-11T00:20:51.238Z,7.15
2023-02-11T00:23:18.047Z,5.10
2023-02-11T00:25:45.634Z,5.18
2023-02-11T00:28:12.922Z,6.20
2023-02-11T00:30:40.202Z,7.00
2023-02-11T00:33:07.333Z,4.60
2023-02-11T00:35:36.400Z,5.63
2023-02-11T00:38:03.171Z,5.25
2023-02-11T00:40:30.025Z,6.65
2023-02-11T00:42:56.828Z,5.18
2023-02-11T00:45:23.700Z,4.97
2023-02-11T00:47:50.498Z,7.57
2023-02-11T00:50:19.546Z,6.55
2023-02-11T00:52:46.350Z,5.60
2023-02-11T00:55:13.171Z,6.25
2023-02-11T00:57:39.961Z,5.97
2023-02-11T01:00:08.032Z,6.53
2023-02-11T01:05:01.810Z,5.00
2023-02-11T01:07:28.930Z,5.50
2023-02-11T01:09:56.055Z,5.82
2023-02-11T01:12:23.285Z,5.85
2023-02-11T01:14:55.780Z,4.93
2023-02-11T01:17:22.677Z,6.40
2023-02-11T01:19:49.497Z,5.15
2023-02-11T01:22:21.103Z,4.97
2023-02-11T01:24:48.008Z,4.93
2023-02-11T01:27:14.987Z,5.18
2023-02-11T01:29:44.395Z,7.03
2023-02-11T01:32:11.225Z,5.25
2023-02-11T01:34:38.075Z,6.65
2023-02-11T01:37:04.874Z,3.65
2023-02-11T01:39:34.024Z,4.80
2023-02-11T01:42:01.032Z,4.13
2023-02-11T01:44:27.871Z,4.88
2023-02-11T01:46:55.568Z,5.50
2023-02-11T01:49:30.524Z,4.50
2023-02-11T01:52:00.175Z,4.13
2023-02-11T01:54:53.538Z,5.22
2023-02-11T01:57:24.905Z,4.47
2023-02-11T02:00:00.249Z,5.88
2023-02-11T02:02:33.746Z,4.50
2023-02-11T02:05:30.795Z,5.45
2023-02-11T02:08:04.412Z,3.95
2023-02-11T02:10:34.104Z,4.28
2023-02-11T02:13:00.957Z,5.20
2023-02-11T02:15:27.792Z,4.97
2023-02-11T02:18:18.274Z,4.32
2023-02-11T02:21:03.634Z,4.85
2023-02-11T02:23:54.596Z,4.47
2023-02-11T02:26:38.008Z,6.38
2023-02-11T02:29:04.746Z,3.47
2023-02-11T02:31:59.536Z,6.15
2023-02-11T02:35:11.775Z,3.85
2023-02-11T02:37:47.709Z,4.13
2023-02-11T02:40:25.737Z,4.38
2023-02-11T02:42:54.014Z,4.63
2023-02-11T02:45:21.056Z,5.05
2023-02-11T02:47:48.008Z,4.70
2023-02-11T02:50:19.644Z,6.47
2023-02-11T02:52:58.644Z,4.78
2023-02-11T02:55:50.037Z,4.85
2023-02-11T02:58:41.343Z,5.15
2023-02-11T03:01:27.021Z,5.20
2023-02-11T03:04:13.628Z,5.32
2023-02-11T03:06:55.194Z,4.65
2023-02-11T03:09:48.133Z,3.72
2023-02-11T03:12:15.699Z,4.50
2023-02-11T03:14:43.187Z,4.47
2023-02-11T03:17:10.664Z,4.07
2023-02-11T03:19:44.350Z,3.88
2023-02-11T03:22:20.444Z,3.47
2023-02-11T03:24:47.748Z,5.60
2023-02-11T03:27:38.674Z,6.05
2023-02-11T03:30:19.867Z,5.35
2023-02-11T03:33:19.858Z,5.65
2023-02-11T03:36:02.608Z,4.63
2023-02-11T03:38:33.919Z,4.38
2023-02-11T03:41:03.525Z,3.70
2023-02-11T03:43:38.640Z,6.20
2023-02-11T03:46:06.271Z,3.90
2023-02-11T03:48:44.214Z,3.92
2023-02-11T03:51:16.640Z,5.53
2023-02-11T03:53:46.488Z,4.40
2023-02-11T03:56:20.067Z,3.58
2023-02-11T03:58:48.327Z,3.55
2023-02-11T04:01:15.481Z,4.53
2023-02-11T04:03:42.558Z,3.67
2023-02-11T04:06:09.351Z,4.97
2023-02-11T04:08:36.175Z,4.32
2023-02-11T04:11:02.996Z,5.13
2023-02-11T04:13:30.234Z,4.32
2023-02-11T04:15:57.124Z,4.47
2023-02-11T04:18:24.041Z,3.33
2023-02-11T04:20:53.319Z,3.67
2023-02-11T04:23:20.112Z,2.97
2023-02-11T04:25:46.912Z,3.15
2023-02-11T04:28:13.759Z,3.63
2023-02-11T04:30:40.676Z,3.97
2023-02-11T04:33:07.516Z,5.90
2023-02-11T04:35:34.301Z,4.25
2023-02-11T04:38:01.091Z,5.15
2023-02-11T04:40:27.883Z,3.00
2023-02-11T04:42:54.781Z,3.95
2023-02-11T04:45:24.341Z,3.63
2023-02-11T04:47:51.237Z,4.88
2023-02-11T04:50:20.792Z,3.83
2023-02-11T04:52:47.645Z,4.90
2023-02-11T04:55:14.461Z,3.33
2023-02-11T04:57:41.267Z,3.53
2023-02-11T05:00:10.004Z,3.42
2023-02-11T05:02:39.334Z,3.42
2023-02-11T05:05:06.576Z,3.28
2023-02-11T05:07:33.440Z,3.40
2023-02-11T05:10:02.449Z,5.10
2023-02-11T05:12:29.217Z,3.83
2023-02-11T05:14:58.228Z,3.33
2023-02-11T05:17:25.000Z,5.47
2023-02-11T05:19:51.803Z,2.55
2023-02-11T05:22:22.018Z,3.17
2023-02-11T05:24:48.908Z,4.13
2023-02-11T05:27:15.745Z,3.63
2023-02-11T05:29:42.605Z,2.58
2023-02-11T05:32:09.443Z,3.63
2023-02-11T05:34:36.887Z,2.72
2023-02-11T05:37:03.685Z,3.00
2023-02-11T05:39:33.025Z,4.78
2023-02-11T05:41:59.791Z,4.20
2023-02-11T05:44:26.629Z,5.35
2023-02-11T05:46:53.443Z,3.30
2023-02-11T05:49:22.785Z,3.42
2023-02-11T05:51:49.750Z,4.18
2023-02-11T05:54:16.901Z,3.10
2023-02-11T05:56:44.911Z,3.90
2023-02-11T06:01:40.335Z,3.87
2023-02-11T06:04:07.123Z,3.50
2023-02-11T06:06:33.972Z,3.65
2023-02-11T06:09:00.760Z,4.85
2023-02-11T06:11:27.602Z,3.47
2023-02-11T06:13:54.469Z,3.90
2023-02-11T06:16:23.462Z,3.53
2023-02-11T06:18:52.896Z,5.18
2023-02-11T06:21:19.729Z,4.22
2023-02-11T06:23:46.703Z,6.18
2023-02-11T06:26:21.652Z,6.00
2023-02-11T06:28:48.759Z,2.85
2023-02-11T06:31:16.294Z,5.82
2023-02-11T06:33:43.564Z,9.23
2023-02-11T06:36:21.158Z,4.93
2023-02-11T06:38:51.055Z,4.13
2023-02-11T06:41:22.082Z,5.93
2023-02-11T06:43:49.431Z,6.13
2023-02-11T06:46:16.418Z,5.25
2023-02-11T06:48:44.857Z,7.47
2023-02-11T06:51:13.433Z,7.97
2023-02-11T06:53:43.810Z,7.35
2023-02-11T06:56:13.776Z,7.15
2023-02-11T06:58:41.027Z,4.47
2023-02-11T07:01:12.818Z,11.93
2023-02-11T07:03:41.512Z,4.72
2023-02-11T07:06:09.079Z,4.53
2023-02-11T07:08:40.492Z,7.55
2023-02-11T07:11:19.342Z,6.25
2023-02-11T07:13:47.330Z,9.70
2023-02-11T07:16:16.428Z,8.55
2023-02-11T07:18:43.873Z,4.90
2023-02-11T07:21:13.523Z,4.72
2023-02-11T07:23:41.281Z,4.32
2023-02-11T07:26:11.660Z,4.68
2023-02-11T07:28:39.771Z,5.03
2023-02-11T07:33:36.340Z,4.25
2023-02-11T07:36:09.858Z,4.60
2023-02-11T07:38:37.249Z,8.65
2023-02-11T07:41:09.805Z,11.43
2023-02-11T07:43:37.598Z,13.20
2023-02-11T07:46:11.302Z,10.90
2023-02-11T07:48:38.535Z,8.25
2023-02-11T07:51:17.199Z,10.60
2023-02-11T07:53:44.484Z,13.45
2023-02-11T07:56:12.536Z,12.10
2023-02-11T08:01:09.316Z,6.95
2023-02-11T08:03:37.055Z,10.02
2023-02-11T08:06:11.791Z,10.55
2023-02-11T08:08:38.780Z,9.57
2023-02-11T08:11:13.792Z,11.35
2023-02-11T08:13:40.976Z,25.95
2023-02-11T08:16:08.532Z,9.38
2023-02-11T08:18:35.963Z,8.20
2023-02-11T08:21:10.092Z,8.13
2023-02-11T08:23:38.757Z,7.65
2023-02-11T08:26:07.709Z,5.45
2023-02-11T08:28:42.600Z,10.32
2023-02-11T08:31:30.296Z,6.72
2023-02-11T08:36:29.438Z,12.43
2023-02-11T08:39:12.185Z,17.40
2023-02-11T08:41:43.723Z,11.83
2023-02-11T08:44:10.929Z,14.43
2023-02-11T08:46:37.859Z,12.10
2023-02-11T08:49:05.076Z,13.65
2023-02-11T08:51:32.314Z,14.33
2023-02-11T08:53:59.863Z,18.77
2023-02-11T08:56:31.468Z,14.10
2023-02-11T08:59:00.542Z,15.50
2023-02-11T09:01:30.352Z,13.48
2023-02-11T09:03:58.081Z,14.60
2023-02-11T09:06:28.191Z,18.17
2023-02-11T09:08:57.260Z,15.93
2023-02-11T09:11:31.171Z,14.88
2023-02-11T09:13:58.535Z,16.27
2023-02-11T09:16:28.763Z,21.23
2023-02-11T09:19:00.353Z,16.05
2023-02-11T09:21:28.678Z,15.90
2023-02-11T09:23:56.036Z,16.73
2023-02-11T09:26:25.537Z,16.05
2023-02-11T09:28:52.913Z,16.52
2023-02-11T09:31:22.198Z,15.75
2023-02-11T09:33:51.189Z,16.75
2023-02-11T09:36:24.759Z,12.60
2023-02-11T09:38:52.805Z,15.82
2023-02-11T09:43:56.277Z,16.05
2023-02-11T09:46:24.585Z,12.90
2023-02-11T09:48:54.744Z,13.55
2023-02-11T09:51:50.057Z,17.17
2023-02-11T09:54:35.303Z,11.80
2023-02-11T09:57:02.329Z,13.70
2023-02-11T09:59:29.181Z,13.43
2023-02-11T10:02:12.051Z,12.05
2023-02-11T10:04:50.848Z,14.32
2023-02-11T10:07:35.711Z,21.00
2023-02-11T10:10:33.947Z,16.38
2023-02-11T10:13:06.384Z,15.48
2023-02-11T10:15:43.012Z,13.85
2023-02-11T10:18:24.567Z,22.05
2023-02-11T10:21:13.704Z,24.20
2023-02-11T10:23:45.101Z,21.15
2023-02-11T10:26:14.970Z,17.98
2023-02-11T10:28:48.335Z,20.90
2023-02-11T10:31:24.765Z,29.67
2023-02-11T10:33:58.456Z,27.05
2023-02-11T10:36:29.871Z,21.50
2023-02-11T10:39:16.501Z,22.73
2023-02-11T10:41:59.613Z,15.45
2023-02-11T10:44:33.483Z,14.55
2023-02-11T10:47:22.840Z,23.90
2023-02-11T10:49:50.412Z,17.75
2023-02-11T10:52:24.809Z,22.42
2023-02-11T10:55:22.028Z,20.73
2023-02-11T10:57:59.107Z,14.38
2023-02-11T11:00:42.252Z,15.90
2023-02-11T11:03:20.374Z,16.52
2023-02-11T11:05:58.714Z,56.40
2023-02-11T11:08:47.276Z,106.22
2023-02-11T11:11:22.066Z,98.35
2023-02-11T11:13:58.264Z,82.72
2023-02-11T11:16:32.625Z,62.92
2023-02-11T11:19:08.438Z,50.03
2023-02-11T11:21:43.552Z,37.47
2023-02-11T11:24:21.302Z,34.70
2023-02-11T11:26:54.190Z,37.93
2023-02-11T11:29:26.869Z,29.73
2023-02-11T11:32:00.860Z,28.17
2023-02-11T11:34:33.929Z,24.25
2023-02-11T11:37:10.225Z,29.63
2023-02-11T11:39:37.242Z,25.63
2023-02-11T11:42:22.019Z,22.63
2023-02-11T11:44:58.453Z,25.33
2023-02-11T11:47:52.416Z,26.90
2023-02-11T11:50:41.852Z,25.95
2023-02-11T11:53:21.732Z,28.42
2023-02-11T11:56:18.516Z,26.90
2023-02-11T11:58:45.579Z,27.33
2023-02-11T12:01:35.686Z,25.75
2023-02-11T12:04:05.529Z,19.92
2023-02-11T12:06:41.185Z,26.88
2023-02-11T12:09:45.919Z,21.55
2023-02-11T12:12:46.977Z,24.88
2023-02-11T12:15:47.623Z,22.15
2023-02-11T12:19:05.126Z,28.55
2023-02-11T12:21:50.667Z,21.25
2023-02-11T12:24:42.135Z,23.70
2023-02-11T12:27:19.992Z,23.48
2023-02-11T12:32:40.244Z,20.08
2023-02-11T12:35:19.049Z,18.88
2023-02-11T12:37:58.291Z,18.33
2023-02-11T12:40:25.115Z,17.27
2023-02-11T12:43:17.861Z,28.15
2023-02-11T12:45:49.615Z,20.48
2023-02-11T12:48:37.873Z,20.30
2023-02-11T12:51:16.936Z,20.05
2023-02-11T12:54:19.563Z,13.02
2023-02-11T12:56:52.437Z,15.95
2023-02-11T12:59:41.154Z,16.58
2023-02-11T13:02:30.552Z,13.98
2023-02-11T13:05:02.366Z,15.00
2023-02-11T13:07:35.612Z,15.35
2023-02-11T13:10:16.812Z,13.00
2023-02-11T13:13:06.002Z,15.70
2023-02-11T13:15:33.429Z,17.38
2023-02-11T13:18:10.227Z,15.25
2023-02-11T13:21:15.328Z,14.48
2023-02-11T13:23:47.915Z,14.35
2023-02-11T13:26:31.341Z,12.77
2023-02-11T13:29:17.289Z,11.57
2023-02-11T13:31:56.184Z,9.82
2023-02-11T13:34:47.127Z,11.25
2023-02-11T13:37:38.535Z,11.07
2023-02-11T13:40:21.426Z,12.68
2023-02-11T13:43:05.734Z,12.82
2023-02-11T13:45:44.680Z,13.18
2023-02-11T13:48:32.059Z,11.80
2023-02-11T13:51:13.034Z,10.48
2023-02-11T13:53:49.192Z,11.82
2023-02-11T13:56:34.227Z,11.20
2023-02-11T13:59:32.892Z,13.98
2023-02-11T14:02:18.141Z,12.40
2023-02-11T14:05:23.978Z,9.80
2023-02-11T14:08:28.619Z,11.05
2023-02-11T14:10:55.471Z,13.60
2023-02-11T14:13:29.597Z,11.77
2023-02-11T14:16:09.172Z,10.02
2023-02-11T14:18:44.721Z,11.63
2023-02-11T14:21:23.826Z,11.35
2023-02-11T14:23:56.056Z,12.65
2023-02-11T14:26:30.691Z,11.43
2023-02-11T14:29:14.106Z,12.52
2023-02-11T14:31:59.243Z,11.45
2023-02-11T14:34:52.124Z,13.30
2023-02-11T14:37:37.142Z,11.48
2023-02-11T14:40:09.946Z,10.43
2023-02-11T14:42:38.369Z,10.38
2023-02-11T14:45:10.914Z,11.27
2023-02-11T14:47:52.701Z,12.52
2023-02-11T14:50:59.332Z,14.60
2023-02-11T14:53:30.654Z,15.10
2023-02-11T14:55:59.995Z,18.13
2023-02-11T14:58:32.082Z,13.73
2023-02-11T15:01:01.775Z,14.05
2023-02-11T15:03:43.077Z,16.70
2023-02-11T15:06:23.235Z,12.82
2023-02-11T15:08:52.100Z,12.02
2023-02-11T15:11:22.059Z,14.60
2023-02-11T15:13:53.072Z,13.10
2023-02-11T15:16:24.928Z,15.30
2023-02-11T15:18:58.489Z,13.95
2023-02-11T15:21:30.816Z,14.32
2023-02-11T15:24:20.920Z,14.00
2023-02-11T15:27:03.200Z,12.98
2023-02-11T15:29:43.737Z,15.25
2023-02-11T15:32:18.062Z,12.55
2023-02-11T15:34:46.943Z,16.20
2023-02-11T15:37:25.105Z,13.07
2023-02-11T15:39:53.723Z,14.13
2023-02-11T15:42:25.047Z,20.60
2023-02-11T15:45:25.115Z,17.02
2023-02-11T15:47:54.422Z,21.25
2023-02-11T15:50:31.007Z,18.00
2023-02-11T15:53:01.162Z,17.77
2023-02-11T15:55:29.240Z,18.70
2023-02-11T15:58:01.725Z,19.10
2023-02-11T16:00:46.337Z,19.42
2023-02-11T16:03:32.406Z,19.95
2023-02-11T16:06:18.905Z,26.05
2023-02-11T16:09:05.539Z,15.70
2023-02-11T16:11:35.698Z,25.70
2023-02-11T16:14:19.486Z,21.15
2023-02-11T16:16:50.263Z,18.70
2023-02-11T16:19:24.166Z,21.60
2023-02-11T16:21:53.522Z,17.95
2023-02-11T16:24:25.449Z,20.42
2023-02-11T16:26:55.608Z,19.60
2023-02-11T16:29:35.271Z,22.20
2023-02-11T16:32:15.686Z,22.48
2023-02-11T16:34:42.504Z,18.33
2023-02-11T16:37:09.543Z,19.70
2023-02-11T16:39:36.674Z,13.50
2023-02-11T16:42:06.433Z,19.03
2023-02-11T16:44:34.948Z,16.83
2023-02-11T16:47:03.440Z,13.77
2023-02-11T16:49:38.251Z,14.00
2023-02-11T16:52:12.791Z,14.18
2023-02-11T16:54:42.218Z,16.42
2023-02-11T16:57:17.875Z,15.38
2023-02-11T16:59:45.254Z,17.23
2023-02-11T17:02:27.619Z,14.55
2023-02-11T17:04:56.039Z,14.57
2023-02-11T17:07:23.129Z,15.93
2023-02-11T17:09:50.194Z,22.57
2023-02-11T17:12:17.012Z,17.75
2023-02-11T17:14:43.955Z,16.08
2023-02-11T17:17:11.710Z,13.38
2023-02-11T17:19:38.847Z,13.52
2023-02-11T17:22:06.505Z,16.87
2023-02-11T17:24:33.293Z,12.95
2023-02-11T17:27:00.117Z,14.32
2023-02-11T17:29:29.585Z,17.85
2023-02-11T17:31:57.102Z,17.83
2023-02-11T17:34:29.219Z,18.23
2023-02-11T17:36:57.896Z,16.75
2023-02-11T17:39:24.777Z,18.50
2023-02-11T17:41:51.644Z,14.52
2023-02-11T17:44:18.527Z,15.77
2023-02-11T17:46:45.355Z,13.65
2023-02-11T17:49:12.517Z,15.95
2023-02-11T17:51:40.069Z,13.57
2023-02-11T17:54:13.498Z,16.88
2023-02-11T17:56:41.048Z,15.93
2023-02-11T17:59:09.497Z,16.85
2023-02-11T18:01:38.372Z,12.98
2023-02-11T18:04:06.416Z,15.88
2023-02-11T18:09:04.443Z,12.15
2023-02-11T18:11:33.541Z,13.27
2023-02-11T18:14:02.170Z,11.30
2023-02-11T18:16:30.477Z,13.60
2023-02-11T18:18:58.898Z,9.45
2023-02-11T18:21:25.710Z,12.35
2023-02-11T18:23:54.747Z,14.45
2023-02-11T18:26:22.262Z,15.32
2023-02-11T18:28:49.155Z,15.90
2023-02-11T18:31:16.102Z,12.18
2023-02-11T18:33:43.978Z,18.63
2023-02-11T18:36:14.854Z,13.68
2023-02-11T18:38:44.251Z,12.13
2023-02-11T18:41:12.101Z,15.35
2023-02-11T18:43:40.037Z,9.80
2023-02-11T18:46:12.756Z,11.27
2023-02-11T18:48:40.247Z,13.93
2023-02-11T18:51:14.771Z,13.27
2023-02-11T18:53:42.584Z,10.18
2023-02-11T18:56:20.870Z,11.77
2023-02-11T18:58:47.983Z,14.20
2023-02-11T19:01:27.321Z,12.00
2023-02-11T19:03:56.444Z,12.98
2023-02-11T19:06:28.498Z,14.00
2023-02-11T19:08:59.748Z,13.82
2023-02-11T19:11:47.100Z,9.88
2023-02-11T19:14:16.528Z,11.88
2023-02-11T19:16:44.647Z,12.82
2023-02-11T19:19:11.606Z,14.23
2023-02-11T19:21:38.484Z,11.43
2023-02-11T19:24:09.260Z,13.45
2023-02-11T19:26:36.798Z,10.98
2023-02-11T19:29:05.880Z,14.20
2023-02-11T19:31:33.018Z,13.48
2023-02-11T19:34:00.763Z,11.35
2023-02-11T19:36:27.799Z,14.80
2023-02-11T19:38:55.123Z,11.82
2023-02-11T19:41:24.847Z,14.35
2023-02-11T19:43:53.035Z,14.45
2023-02-11T19:46:21.182Z,13.50
2023-02-11T19:48:49.073Z,20.48
2023-02-11T19:51:16.652Z,15.52
2023-02-11T19:53:44.376Z,14.32
2023-02-11T19:56:12.771Z,12.70
2023-02-11T19:58:43.029Z,11.50
2023-02-11T20:01:27.879Z,17.17
2023-02-11T20:03:57.288Z,11.50
2023-02-11T20:06:28.359Z,12.65
2023-02-11T20:08:58.766Z,11.55
2023-02-11T20:11:29.452Z,9.70
2023-02-11T20:13:56.927Z,11.00
2023-02-11T20:16:40.724Z,12.20
2023-02-11T20:19:08.002Z,13.60
2023-02-11T20:21:34.834Z,11.07
2023-02-11T20:24:01.630Z,8.93
2023-02-11T20:26:34.851Z,11.98
2023-02-11T20:29:02.596Z,11.68
2023-02-11T20:31:32.227Z,9.13
2023-02-11T20:34:00.332Z,9.93
2023-02-11T20:39:06.416Z,9.88
2023-02-11T20:41:35.270Z,9.93
2023-02-11T20:44:09.981Z,7.35
2023-02-11T20:46:40.072Z,10.13
2023-02-11T20:49:08.667Z,11.05
2023-02-11T20:51:36.644Z,9.93
2023-02-11T20:54:03.665Z,11.27
2023-02-11T20:56:33.035Z,10.45
2023-02-11T20:59:02.096Z,8.73
2023-02-11T21:01:42.824Z,11.38
2023-02-11T21:04:18.894Z,9.63
2023-02-11T21:06:49.840Z,12.45
2023-02-11T21:09:22.274Z,10.38
2023-02-11T21:11:51.626Z,9.25
2023-02-11T21:14:19.607Z,11.10
2023-02-11T21:19:14.669Z,9.30
2023-02-11T21:21:44.332Z,12.13
2023-02-11T21:24:11.848Z,10.10
2023-02-11T21:26:38.797Z,7.05
2023-02-11T21:29:07.292Z,9.75
2023-02-11T21:31:35.511Z,9.80
2023-02-11T21:34:02.875Z,9.35
2023-02-11T21:36:30.800Z,9.57
2023-02-11T21:41:25.026Z,13.50
2023-02-11T21:43:52.285Z,9.20
2023-02-11T21:46:20.455Z,9.47
2023-02-11T21:48:50.149Z,8.85
2023-02-11T21:51:23.216Z,8.15
2023-02-11T21:54:01.161Z,8.90
2023-02-11T21:56:31.866Z,9.50
2023-02-11T21:58:59.609Z,8.60
2023-02-11T22:01:28.945Z,8.18
2023-02-11T22:03:56.208Z,8.73
2023-02-11T22:06:30.934Z,9.07
2023-02-11T22:08:58.648Z,8.38
2023-02-11T22:11:25.493Z,10.32
2023-02-11T22:13:56.291Z,8.82
2023-02-11T22:16:23.689Z,10.57
2023-02-11T22:18:51.453Z,8.30
2023-02-11T22:21:21.492Z,8.13
2023-02-11T22:23:48.908Z,8.07
2023-02-11T22:26:22.305Z,7.68
2023-02-11T22:28:49.968Z,7.80
2023-02-11T22:31:23.139Z,9.60
2023-02-11T22:33:50.795Z,10.25
2023-02-11T22:36:23.831Z,9.48
2023-02-11T22:38:51.142Z,7.55
2023-02-11T22:41:18.418Z,8.93
2023-02-11T22:43:47.971Z,10.55
2023-02-11T22:46:19.572Z,7.75
2023-02-11T22:48:47.684Z,9.52
2023-02-11T22:53:48.500Z,9.38
2023-02-11T22:56:15.975Z,10.55
2023-02-11T22:58:42.882Z,7.88
2023-02-11T23:01:10.077Z,8.30
2023-02-11T23:03:37.042Z,8.88
2023-02-11T23:06:04.459Z,8.63
2023-02-11T23:08:34.223Z,7.35
2023-02-11T23:11:09.837Z,9.10
2023-02-11T23:13:39.525Z,9.32
2023-02-11T23:16:09.024Z,9.15
2023-02-11T23:18:37.470Z,8.77
2023-02-11T23:21:12.475Z,9.40
2023-02-11T23:23:39.991Z,8.50
2023-02-11T23:26:10.709Z,8.07
2023-02-11T23:28:38.227Z,8.35
2023-02-11T23:31:25.391Z,8.30
2023-02-11T23:33:52.882Z,8.63
2023-02-11T23:36:21.573Z,8.35
2023-02-11T23:38:48.713Z,7.65
2023-02-11T23:41:16.491Z,7.80
2023-02-11T23:43:44.056Z,8.30
2023-02-11T23:46:11.582Z,7.10
2023-02-11T23:48:40.487Z,8.35
2023-02-11T23:51:10.297Z,7.90
2023-02-11T23:53:38.458Z,7.10
2023-02-11T23:56:10.900Z,8.65
2023-02-11T23:58:37.830Z,8.38
